sensor_id;sensor_type;location;lat;lon;timestamp;pressure;altitude;pressure_sealevel;temperature;humidity
62864;BME280;48954;59.950;11.014;2022-08-03T00:00:48;98976.89;;;13.62;86.64
62864;BME280;48954;59.950;11.014;2022-08-03T00:03:15;98977.52;;;13.63;86.60
62864;BME280;48954;59.950;11.014;2022-08-03T00:05:41;98974.27;;;13.64;86.77
62864;BME280;48954;59.950;11.014;2022-08-03T00:08:07;98968.65;;;13.69;87.08
62864;BME280;48954;59.950;11.014;2022-08-03T00:10:34;98972.02;;;13.79;87.62
62864;BME280;48954;59.950;11.014;2022-08-03T00:13:00;98976.80;;;13.91;87.92
62864;BME280;48954;59.950;11.014;2022-08-03T00:15:26;98974.15;;;14.01;88.03
62864;BME280;48954;59.950;11.014;2022-08-03T00:17:53;98970.32;;;14.10;88.03
62864;BME280;48954;59.950;11.014;2022-08-03T00:20:20;98976.05;;;14.18;87.94
62864;BME280;48954;59.950;11.014;2022-08-03T00:22:48;98973.66;;;14.24;87.96
62864;BME280;48954;59.950;11.014;2022-08-03T00:25:14;98968.73;;;14.28;87.97
62864;BME280;48954;59.950;11.014;2022-08-03T00:27:41;98966.16;;;14.35;87.86
62864;BME280;48954;59.950;11.014;2022-08-03T00:30:07;98963.00;;;14.38;87.87
62864;BME280;48954;59.950;11.014;2022-08-03T00:32:34;98961.81;;;14.42;87.96
62864;BME280;48954;59.950;11.014;2022-08-03T00:35:00;98963.38;;;14.45;87.88
62864;BME280;48954;59.950;11.014;2022-08-03T00:37:27;98965.02;;;14.47;87.89
62864;BME280;48954;59.950;11.014;2022-08-03T00:39:53;98965.81;;;14.50;87.94
62864;BME280;48954;59.950;11.014;2022-08-03T00:42:19;98970.30;;;14.53;87.91
62864;BME280;48954;59.950;11.014;2022-08-03T00:44:45;98972.88;;;14.55;87.95
62864;BME280;48954;59.950;11.014;2022-08-03T00:47:13;98979.83;;;14.57;87.89
62864;BME280;48954;59.950;11.014;2022-08-03T00:49:40;98986.54;;;14.59;87.95
62864;BME280;48954;59.950;11.014;2022-08-03T00:52:08;98986.29;;;14.61;87.84
62864;BME280;48954;59.950;11.014;2022-08-03T00:54:38;98989.69;;;14.63;87.91
62864;BME280;48954;59.950;11.014;2022-08-03T00:57:05;98987.70;;;14.65;88.08
62864;BME280;48954;59.950;11.014;2022-08-03T00:59:31;98988.77;;;14.68;88.00
62864;BME280;48954;59.950;11.014;2022-08-03T01:01:58;98994.20;;;14.71;88.00
62864;BME280;48954;59.950;11.014;2022-08-03T01:04:24;98980.48;;;14.66;88.03
62864;BME280;48954;59.950;11.014;2022-08-03T01:13:06;98984.42;;;14.80;87.96
62864;BME280;48954;59.950;11.014;2022-08-03T01:20:26;98973.64;;;14.83;87.91
62864;BME280;48954;59.950;11.014;2022-08-03T01:23:05;98976.07;;;14.87;88.06
62864;BME280;48954;59.950;11.014;2022-08-03T01:30:42;98977.98;;;14.95;88.15
62864;BME280;48954;59.950;11.014;2022-08-03T01:33:20;98974.73;;;14.97;88.13
62864;BME280;48954;59.950;11.014;2022-08-03T01:35:53;98972.24;;;15.01;88.26
62864;BME280;48954;59.950;11.014;2022-08-03T01:38:27;98968.66;;;15.05;88.28
62864;BME280;48954;59.950;11.014;2022-08-03T01:40:55;98960.05;;;15.10;88.26
62864;BME280;48954;59.950;11.014;2022-08-03T01:43:25;98958.38;;;15.13;88.31
62864;BME280;48954;59.950;11.014;2022-08-03T01:45:55;98950.69;;;15.15;88.25
62864;BME280;48954;59.950;11.014;2022-08-03T01:48:22;98949.09;;;15.17;88.28
62864;BME280;48954;59.950;11.014;2022-08-03T01:50:50;98947.70;;;15.20;88.19
62864;BME280;48954;59.950;11.014;2022-08-03T01:53:21;98950.77;;;15.22;88.26
62864;BME280;48954;59.950;11.014;2022-08-03T01:55:52;98949.41;;;15.24;88.24
62864;BME280;48954;59.950;11.014;2022-08-03T01:58:20;98949.39;;;15.26;88.32
62864;BME280;48954;59.950;11.014;2022-08-03T02:00:49;98947.17;;;15.28;88.31
62864;BME280;48954;59.950;11.014;2022-08-03T02:03:17;98944.23;;;15.30;88.33
62864;BME280;48954;59.950;11.014;2022-08-03T02:05:46;98941.41;;;15.32;88.27
62864;BME280;48954;59.950;11.014;2022-08-03T02:08:15;98943.92;;;15.33;88.23
62864;BME280;48954;59.950;11.014;2022-08-03T02:10:42;98939.89;;;15.34;88.11
62864;BME280;48954;59.950;11.014;2022-08-03T02:13:09;98944.93;;;15.36;88.21
62864;BME280;48954;59.950;11.014;2022-08-03T02:15:37;98942.48;;;15.38;88.30
62864;BME280;48954;59.950;11.014;2022-08-03T02:18:05;98944.27;;;15.42;88.31
62864;BME280;48954;59.950;11.014;2022-08-03T02:20:33;98943.22;;;15.43;88.28
62864;BME280;48954;59.950;11.014;2022-08-03T02:23:00;98951.05;;;15.44;88.37
62864;BME280;48954;59.950;11.014;2022-08-03T02:25:27;98950.52;;;15.47;88.27
62864;BME280;48954;59.950;11.014;2022-08-03T02:27:57;98952.73;;;15.48;88.38
62864;BME280;48954;59.950;11.014;2022-08-03T02:30:36;98951.05;;;15.50;88.28
62864;BME280;48954;59.950;11.014;2022-08-03T02:33:05;98951.52;;;15.51;88.29
62864;BME280;48954;59.950;11.014;2022-08-03T02:35:34;98951.52;;;15.52;88.21
62864;BME280;48954;59.950;11.014;2022-08-03T02:38:04;98948.77;;;15.51;88.24
62864;BME280;48954;59.950;11.014;2022-08-03T02:40:32;98953.17;;;15.53;88.16
62864;BME280;48954;59.950;11.014;2022-08-03T02:43:02;98958.00;;;15.54;88.12
62864;BME280;48954;59.950;11.014;2022-08-03T02:45:32;98955.79;;;15.54;88.15
62864;BME280;48954;59.950;11.014;2022-08-03T02:48:02;98955.86;;;15.56;88.11
62864;BME280;48954;59.950;11.014;2022-08-03T02:50:32;98948.34;;;15.56;88.06
62864;BME280;48954;59.950;11.014;2022-08-03T02:53:01;98945.17;;;15.56;88.09
62864;BME280;48954;59.950;11.014;2022-08-03T02:55:29;98946.16;;;15.58;88.15
62864;BME280;48954;59.950;11.014;2022-08-03T02:57:58;98944.65;;;15.58;87.94
62864;BME280;48954;59.950;11.014;2022-08-03T03:00:24;98940.61;;;15.59;87.95
62864;BME280;48954;59.950;11.014;2022-08-03T03:02:51;98942.27;;;15.59;88.00
62864;BME280;48954;59.950;11.014;2022-08-03T03:05:18;98941.41;;;15.59;87.93
62864;BME280;48954;59.950;11.014;2022-08-03T03:07:45;98945.20;;;15.59;87.92
62864;BME280;48954;59.950;11.014;2022-08-03T03:10:12;98942.13;;;15.59;87.96
62864;BME280;48954;59.950;11.014;2022-08-03T03:12:39;98941.48;;;15.60;87.81
62864;BME280;48954;59.950;11.014;2022-08-03T03:15:08;98944.33;;;15.60;87.80
62864;BME280;48954;59.950;11.014;2022-08-03T03:17:36;98943.36;;;15.60;87.80
62864;BME280;48954;59.950;11.014;2022-08-03T03:20:03;98942.48;;;15.61;87.86
62864;BME280;48954;59.950;11.014;2022-08-03T03:22:30;98945.66;;;15.61;87.82
62864;BME280;48954;59.950;11.014;2022-08-03T03:24:59;98943.83;;;15.63;87.71
62864;BME280;48954;59.950;11.014;2022-08-03T03:27:25;98943.98;;;15.63;87.66
62864;BME280;48954;59.950;11.014;2022-08-03T03:29:52;98943.03;;;15.64;87.60
62864;BME280;48954;59.950;11.014;2022-08-03T03:32:18;98944.21;;;15.65;87.59
62864;BME280;48954;59.950;11.014;2022-08-03T03:34:45;98943.10;;;15.65;87.56
62864;BME280;48954;59.950;11.014;2022-08-03T03:37:12;98945.47;;;15.65;87.56
62864;BME280;48954;59.950;11.014;2022-08-03T03:39:39;98954.02;;;15.65;87.46
62864;BME280;48954;59.950;11.014;2022-08-03T03:42:05;98957.02;;;15.65;87.47
62864;BME280;48954;59.950;11.014;2022-08-03T03:44:31;98954.58;;;15.65;87.50
62864;BME280;48954;59.950;11.014;2022-08-03T03:46:58;98955.77;;;15.66;87.46
62864;BME280;48954;59.950;11.014;2022-08-03T03:49:25;98959.23;;;15.66;87.40
62864;BME280;48954;59.950;11.014;2022-08-03T03:51:52;98957.67;;;15.65;87.36
62864;BME280;48954;59.950;11.014;2022-08-03T03:54:19;98961.67;;;15.68;87.35
62864;BME280;48954;59.950;11.014;2022-08-03T03:56:46;98960.63;;;15.70;87.39
62864;BME280;48954;59.950;11.014;2022-08-03T03:59:12;98962.02;;;15.71;87.42
62864;BME280;48954;59.950;11.014;2022-08-03T04:01:38;98960.58;;;15.72;87.38
62864;BME280;48954;59.950;11.014;2022-08-03T04:04:05;98961.13;;;15.73;87.32
62864;BME280;48954;59.950;11.014;2022-08-03T04:06:32;98963.98;;;15.75;87.37
62864;BME280;48954;59.950;11.014;2022-08-03T04:08:59;98961.66;;;15.75;87.31
62864;BME280;48954;59.950;11.014;2022-08-03T04:11:46;98957.54;;;15.77;87.34
62864;BME280;48954;59.950;11.014;2022-08-03T04:14:18;98950.95;;;15.77;87.39
62864;BME280;48954;59.950;11.014;2022-08-03T04:16:53;98948.57;;;15.78;87.20
62864;BME280;48954;59.950;11.014;2022-08-03T04:19:26;98954.52;;;15.78;87.14
62864;BME280;48954;59.950;11.014;2022-08-03T04:21:58;98959.27;;;15.78;87.11
62864;BME280;48954;59.950;11.014;2022-08-03T04:24:32;98956.80;;;15.79;87.14
62864;BME280;48954;59.950;11.014;2022-08-03T04:27:01;98960.20;;;15.81;87.11
62864;BME280;48954;59.950;11.014;2022-08-03T04:29:32;98967.63;;;15.82;87.12
62864;BME280;48954;59.950;11.014;2022-08-03T04:32:00;98970.11;;;15.84;87.08
62864;BME280;48954;59.950;11.014;2022-08-03T04:34:26;98972.94;;;15.87;87.11
62864;BME280;48954;59.950;11.014;2022-08-03T04:36:58;98973.48;;;15.89;87.05
62864;BME280;48954;59.950;11.014;2022-08-03T04:39:30;98971.23;;;15.90;86.93
62864;BME280;48954;59.950;11.014;2022-08-03T04:42:01;98971.86;;;15.92;86.95
62864;BME280;48954;59.950;11.014;2022-08-03T04:44:28;98970.33;;;15.94;86.95
62864;BME280;48954;59.950;11.014;2022-08-03T04:46:56;98969.43;;;15.96;86.84
62864;BME280;48954;59.950;11.014;2022-08-03T04:49:23;98966.70;;;15.97;86.80
62864;BME280;48954;59.950;11.014;2022-08-03T04:51:50;98964.63;;;16.00;86.77
62864;BME280;48954;59.950;11.014;2022-08-03T04:54:17;98969.42;;;16.03;86.68
62864;BME280;48954;59.950;11.014;2022-08-03T04:56:43;98969.86;;;16.07;86.74
62864;BME280;48954;59.950;11.014;2022-08-03T04:59:10;98969.93;;;16.08;86.62
62864;BME280;48954;59.950;11.014;2022-08-03T05:01:38;98973.34;;;16.08;86.62
62864;BME280;48954;59.950;11.014;2022-08-03T05:04:05;98972.48;;;16.07;86.59
62864;BME280;48954;59.950;11.014;2022-08-03T05:06:31;98983.41;;;16.07;86.60
62864;BME280;48954;59.950;11.014;2022-08-03T05:08:58;98978.12;;;16.06;86.59
62864;BME280;48954;59.950;11.014;2022-08-03T05:11:24;98979.47;;;16.05;86.63
62864;BME280;48954;59.950;11.014;2022-08-03T05:13:50;98977.97;;;16.04;86.58
62864;BME280;48954;59.950;11.014;2022-08-03T05:16:17;98983.04;;;16.04;86.56
62864;BME280;48954;59.950;11.014;2022-08-03T05:18:44;98990.42;;;16.04;86.41
62864;BME280;48954;59.950;11.014;2022-08-03T05:21:10;98986.61;;;16.04;86.48
62864;BME280;48954;59.950;11.014;2022-08-03T05:23:37;98988.98;;;16.05;86.36
62864;BME280;48954;59.950;11.014;2022-08-03T05:26:03;98986.52;;;16.06;86.35
62864;BME280;48954;59.950;11.014;2022-08-03T05:28:30;98989.67;;;16.07;86.33
62864;BME280;48954;59.950;11.014;2022-08-03T05:30:56;98993.06;;;16.08;86.12
62864;BME280;48954;59.950;11.014;2022-08-03T05:33:22;98996.16;;;16.08;86.08
62864;BME280;48954;59.950;11.014;2022-08-03T05:35:49;99002.34;;;16.09;86.10
62864;BME280;48954;59.950;11.014;2022-08-03T05:38:15;99005.59;;;16.08;86.08
62864;BME280;48954;59.950;11.014;2022-08-03T05:40:42;99002.41;;;16.08;85.99
62864;BME280;48954;59.950;11.014;2022-08-03T05:43:08;99006.20;;;16.10;86.00
62864;BME280;48954;59.950;11.014;2022-08-03T05:45:35;99000.77;;;16.13;86.00
62864;BME280;48954;59.950;11.014;2022-08-03T05:48:03;99002.42;;;16.15;85.91
62864;BME280;48954;59.950;11.014;2022-08-03T05:50:30;99001.45;;;16.16;85.91
62864;BME280;48954;59.950;11.014;2022-08-03T05:52:56;99000.23;;;16.18;85.82
62864;BME280;48954;59.950;11.014;2022-08-03T05:55:23;99000.36;;;16.22;85.88
62864;BME280;48954;59.950;11.014;2022-08-03T05:57:49;98999.57;;;16.26;85.82
62864;BME280;48954;59.950;11.014;2022-08-03T06:00:16;98999.67;;;16.32;85.73
62864;BME280;48954;59.950;11.014;2022-08-03T06:02:43;99000.77;;;16.38;85.71
62864;BME280;48954;59.950;11.014;2022-08-03T06:05:09;99002.02;;;16.39;85.52
62864;BME280;48954;59.950;11.014;2022-08-03T06:07:36;98988.56;;;16.38;85.36
62864;BME280;48954;59.950;11.014;2022-08-03T06:10:03;98993.02;;;16.44;85.29
62864;BME280;48954;59.950;11.014;2022-08-03T06:12:30;98990.70;;;16.44;85.21
62864;BME280;48954;59.950;11.014;2022-08-03T06:14:56;98990.94;;;16.45;85.24
62864;BME280;48954;59.950;11.014;2022-08-03T06:17:23;98992.52;;;16.45;85.12
62864;BME280;48954;59.950;11.014;2022-08-03T06:19:51;98994.52;;;16.44;84.96
62864;BME280;48954;59.950;11.014;2022-08-03T06:22:18;98990.84;;;16.40;84.97
62864;BME280;48954;59.950;11.014;2022-08-03T06:24:44;98995.88;;;16.41;84.98
62864;BME280;48954;59.950;11.014;2022-08-03T06:27:10;98993.67;;;16.41;84.92
62864;BME280;48954;59.950;11.014;2022-08-03T06:29:37;98985.93;;;16.39;84.78
62864;BME280;48954;59.950;11.014;2022-08-03T06:32:03;98985.11;;;16.40;84.76
62864;BME280;48954;59.950;11.014;2022-08-03T06:34:30;98987.41;;;16.41;84.82
62864;BME280;48954;59.950;11.014;2022-08-03T06:36:56;98982.16;;;16.42;84.72
62864;BME280;48954;59.950;11.014;2022-08-03T06:39:22;98978.98;;;16.43;84.68
62864;BME280;48954;59.950;11.014;2022-08-03T06:41:49;98982.23;;;16.43;84.68
62864;BME280;48954;59.950;11.014;2022-08-03T06:44:15;98980.25;;;16.43;84.76
62864;BME280;48954;59.950;11.014;2022-08-03T06:46:42;98981.11;;;16.44;84.68
62864;BME280;48954;59.950;11.014;2022-08-03T06:49:08;98983.80;;;16.44;84.58
62864;BME280;48954;59.950;11.014;2022-08-03T06:51:34;98984.52;;;16.44;84.70
62864;BME280;48954;59.950;11.014;2022-08-03T06:54:00;98981.17;;;16.45;84.66
62864;BME280;48954;59.950;11.014;2022-08-03T06:56:27;98980.30;;;16.45;84.53
62864;BME280;48954;59.950;11.014;2022-08-03T06:58:53;98978.17;;;16.45;84.49
62864;BME280;48954;59.950;11.014;2022-08-03T07:01:19;98982.98;;;16.47;84.57
62864;BME280;48954;59.950;11.014;2022-08-03T07:03:46;98988.06;;;16.47;84.57
62864;BME280;48954;59.950;11.014;2022-08-03T07:06:12;98992.18;;;16.47;84.57
62864;BME280;48954;59.950;11.014;2022-08-03T07:08:38;98988.23;;;16.46;84.52
62864;BME280;48954;59.950;11.014;2022-08-03T07:11:05;98982.60;;;16.46;84.47
62864;BME280;48954;59.950;11.014;2022-08-03T07:13:31;98972.82;;;16.48;84.42
62864;BME280;48954;59.950;11.014;2022-08-03T07:15:57;98964.69;;;16.50;84.45
62864;BME280;48954;59.950;11.014;2022-08-03T07:18:24;98963.94;;;16.52;84.49
62864;BME280;48954;59.950;11.014;2022-08-03T07:20:50;98961.45;;;16.55;84.53
62864;BME280;48954;59.950;11.014;2022-08-03T07:23:16;98955.07;;;16.58;84.53
62864;BME280;48954;59.950;11.014;2022-08-03T07:25:43;98953.84;;;16.61;84.50
62864;BME280;48954;59.950;11.014;2022-08-03T07:28:09;98952.85;;;16.64;84.43
62864;BME280;48954;59.950;11.014;2022-08-03T07:30:35;98945.91;;;16.67;84.20
62864;BME280;48954;59.950;11.014;2022-08-03T07:33:02;98943.57;;;16.71;84.33
62864;BME280;48954;59.950;11.014;2022-08-03T07:35:28;98938.61;;;16.72;84.32
62864;BME280;48954;59.950;11.014;2022-08-03T07:37:54;98940.17;;;16.78;84.28
62864;BME280;48954;59.950;11.014;2022-08-03T07:40:21;98929.84;;;16.80;84.12
62864;BME280;48954;59.950;11.014;2022-08-03T07:42:47;98920.83;;;16.84;84.14
62864;BME280;48954;59.950;11.014;2022-08-03T07:45:14;98910.46;;;16.87;84.18
62864;BME280;48954;59.950;11.014;2022-08-03T07:47:40;98896.16;;;16.97;84.16
62864;BME280;48954;59.950;11.014;2022-08-03T07:50:07;98891.86;;;17.11;84.42
62864;BME280;48954;59.950;11.014;2022-08-03T07:52:48;98873.67;;;17.37;84.61
62864;BME280;48954;59.950;11.014;2022-08-03T07:55:44;98870.81;;;17.58;84.37
62864;BME280;48954;59.950;11.014;2022-08-03T07:58:18;98881.25;;;17.85;84.22
62864;BME280;48954;59.950;11.014;2022-08-03T08:00:44;98881.63;;;18.01;83.76
62864;BME280;48954;59.950;11.014;2022-08-03T08:03:11;98890.18;;;18.14;83.47
62864;BME280;48954;59.950;11.014;2022-08-03T08:05:37;98893.16;;;18.22;83.13
62864;BME280;48954;59.950;11.014;2022-08-03T08:08:04;98891.43;;;18.29;82.91
62864;BME280;48954;59.950;11.014;2022-08-03T08:10:30;98893.71;;;18.41;82.71
62864;BME280;48954;59.950;11.014;2022-08-03T08:12:57;98889.10;;;18.40;82.39
62864;BME280;48954;59.950;11.014;2022-08-03T08:15:24;98899.44;;;18.59;82.38
62864;BME280;48954;59.950;11.014;2022-08-03T08:17:52;98891.00;;;18.69;81.60
62864;BME280;48954;59.950;11.014;2022-08-03T08:20:28;98888.02;;;18.84;81.74
62864;BME280;48954;59.950;11.014;2022-08-03T08:23:00;98895.61;;;19.05;81.80
62864;BME280;48954;59.950;11.014;2022-08-03T08:25:27;98896.16;;;19.17;81.09
62864;BME280;48954;59.950;11.014;2022-08-03T08:27:55;98911.52;;;19.21;80.76
62864;BME280;48954;59.950;11.014;2022-08-03T08:30:22;98915.52;;;19.30;80.33
62864;BME280;48954;59.950;11.014;2022-08-03T08:32:50;98920.23;;;19.25;80.01
62864;BME280;48954;59.950;11.014;2022-08-03T08:35:18;98929.30;;;19.33;80.28
62864;BME280;48954;59.950;11.014;2022-08-03T08:37:45;98938.14;;;19.32;79.94
62864;BME280;48954;59.950;11.014;2022-08-03T08:40:12;98938.36;;;19.30;79.68
62864;BME280;48954;59.950;11.014;2022-08-03T08:42:42;98939.77;;;19.34;79.60
62864;BME280;48954;59.950;11.014;2022-08-03T08:45:09;98940.77;;;19.44;79.84
62864;BME280;48954;59.950;11.014;2022-08-03T08:47:38;98947.31;;;19.41;79.54
62864;BME280;48954;59.950;11.014;2022-08-03T08:50:06;98949.27;;;19.27;78.82
62864;BME280;48954;59.950;11.014;2022-08-03T08:52:33;98963.09;;;19.13;78.81
62864;BME280;48954;59.950;11.014;2022-08-03T08:55:04;98955.80;;;18.99;78.71
62864;BME280;48954;59.950;11.014;2022-08-03T08:57:38;98950.95;;;18.81;78.63
62864;BME280;48954;59.950;11.014;2022-08-03T09:00:08;98947.59;;;18.69;78.72
62864;BME280;48954;59.950;11.014;2022-08-03T09:02:36;98935.88;;;18.58;78.80
62864;BME280;48954;59.950;11.014;2022-08-03T09:05:02;98932.88;;;18.54;79.07
62864;BME280;48954;59.950;11.014;2022-08-03T09:07:29;98923.96;;;18.54;79.09
62864;BME280;48954;59.950;11.014;2022-08-03T09:09:55;98916.30;;;18.54;79.31
62864;BME280;48954;59.950;11.014;2022-08-03T09:12:22;98922.23;;;18.64;79.43
62864;BME280;48954;59.950;11.014;2022-08-03T09:14:48;98906.46;;;18.71;79.34
62864;BME280;48954;59.950;11.014;2022-08-03T09:17:15;98890.67;;;18.75;79.30
62864;BME280;48954;59.950;11.014;2022-08-03T09:19:41;98894.74;;;18.79;79.29
62864;BME280;48954;59.950;11.014;2022-08-03T09:24:58;98888.80;;;19.12;79.45
62864;BME280;48954;59.950;11.014;2022-08-03T09:27:25;98886.86;;;19.41;78.88
62864;BME280;48954;59.950;11.014;2022-08-03T09:29:53;98884.18;;;19.55;78.18
62864;BME280;48954;59.950;11.014;2022-08-03T09:32:22;98881.69;;;19.61;78.00
62864;BME280;48954;59.950;11.014;2022-08-03T09:34:51;98887.08;;;19.57;77.63
62864;BME280;48954;59.950;11.014;2022-08-03T09:37:19;98892.52;;;19.56;77.58
62864;BME280;48954;59.950;11.014;2022-08-03T09:39:46;98884.42;;;19.63;76.71
62864;BME280;48954;59.950;11.014;2022-08-03T09:42:14;98880.92;;;19.69;76.77
62864;BME280;48954;59.950;11.014;2022-08-03T09:44:44;98882.77;;;19.72;76.77
62864;BME280;48954;59.950;11.014;2022-08-03T09:47:13;98892.42;;;19.76;76.66
62864;BME280;48954;59.950;11.014;2022-08-03T09:49:42;98894.83;;;19.84;76.66
62864;BME280;48954;59.950;11.014;2022-08-03T09:52:29;98897.24;;;19.84;76.16
62864;BME280;48954;59.950;11.014;2022-08-03T09:55:08;98904.19;;;19.80;75.82
62864;BME280;48954;59.950;11.014;2022-08-03T09:57:39;98897.77;;;19.87;75.70
62864;BME280;48954;59.950;11.014;2022-08-03T10:00:09;98896.55;;;19.94;75.44
62864;BME280;48954;59.950;11.014;2022-08-03T10:02:38;98900.62;;;20.01;75.64
62864;BME280;48954;59.950;11.014;2022-08-03T10:05:10;98905.13;;;20.11;75.50
62864;BME280;48954;59.950;11.014;2022-08-03T10:07:45;98893.63;;;20.27;75.33
62864;BME280;48954;59.950;11.014;2022-08-03T10:10:14;98890.61;;;20.46;74.83
62864;BME280;48954;59.950;11.014;2022-08-03T10:12:43;98897.85;;;20.62;74.35
62864;BME280;48954;59.950;11.014;2022-08-03T10:15:11;98897.36;;;20.69;73.79
62864;BME280;48954;59.950;11.014;2022-08-03T10:17:40;98890.36;;;20.79;73.99
62864;BME280;48954;59.950;11.014;2022-08-03T10:20:08;98897.38;;;20.95;74.21
62864;BME280;48954;59.950;11.014;2022-08-03T10:22:36;98902.31;;;21.01;72.77
62864;BME280;48954;59.950;11.014;2022-08-03T10:25:08;98905.28;;;21.05;72.56
62864;BME280;48954;59.950;11.014;2022-08-03T10:27:44;98906.63;;;21.05;72.58
62864;BME280;48954;59.950;11.014;2022-08-03T10:30:12;98912.48;;;20.98;72.20
62864;BME280;48954;59.950;11.014;2022-08-03T10:32:43;98919.63;;;20.97;72.33
62864;BME280;48954;59.950;11.014;2022-08-03T10:35:20;98923.25;;;20.96;71.77
62864;BME280;48954;59.950;11.014;2022-08-03T10:37:58;98923.28;;;20.83;71.73
62864;BME280;48954;59.950;11.014;2022-08-03T10:40:47;98924.38;;;20.66;71.57
62864;BME280;48954;59.950;11.014;2022-08-03T10:44:31;98915.59;;;20.48;71.78
62864;BME280;48954;59.950;11.014;2022-08-03T10:47:37;98910.98;;;20.43;72.17
62864;BME280;48954;59.950;11.014;2022-08-03T10:50:27;98906.39;;;20.47;72.07
62864;BME280;48954;59.950;11.014;2022-08-03T10:53:07;98901.71;;;20.46;71.79
62864;BME280;48954;59.950;11.014;2022-08-03T10:56:06;98898.04;;;20.41;71.77
62864;BME280;48954;59.950;11.014;2022-08-03T10:59:55;98891.85;;;20.33;71.96
62864;BME280;48954;59.950;11.014;2022-08-03T11:03:09;98898.30;;;20.31;71.62
62864;BME280;48954;59.950;11.014;2022-08-03T11:09:15;98889.33;;;20.27;71.50
62864;BME280;48954;59.950;11.014;2022-08-03T11:12:31;98886.63;;;20.21;71.60
62864;BME280;48954;59.950;11.014;2022-08-03T11:15:05;98890.08;;;20.21;71.43
62864;BME280;48954;59.950;11.014;2022-08-03T11:17:33;98905.27;;;20.22;71.69
62864;BME280;48954;59.950;11.014;2022-08-03T11:22:48;98923.10;;;20.26;71.80
62864;BME280;48954;59.950;11.014;2022-08-03T11:25:20;98927.83;;;20.15;71.52
62864;BME280;48954;59.950;11.014;2022-08-03T11:28:27;98931.64;;;20.02;71.66
62864;BME280;48954;59.950;11.014;2022-08-03T11:30:54;98936.89;;;19.94;71.98
62864;BME280;48954;59.950;11.014;2022-08-03T11:33:30;98932.69;;;19.93;72.22
62864;BME280;48954;59.950;11.014;2022-08-03T11:36:00;98934.04;;;19.90;72.19
62864;BME280;48954;59.950;11.014;2022-08-03T11:38:27;98925.31;;;19.83;72.19
62864;BME280;48954;59.950;11.014;2022-08-03T11:40:54;98926.69;;;19.74;72.27
62864;BME280;48954;59.950;11.014;2022-08-03T11:46:08;98931.36;;;19.54;72.68
62864;BME280;48954;59.950;11.014;2022-08-03T11:48:38;98931.55;;;19.47;73.00
62864;BME280;48954;59.950;11.014;2022-08-03T11:51:18;98933.02;;;19.42;73.23
62864;BME280;48954;59.950;11.014;2022-08-03T11:54:02;98933.50;;;19.42;73.39
62864;BME280;48954;59.950;11.014;2022-08-03T11:56:44;98924.03;;;19.39;73.55
62864;BME280;48954;59.950;11.014;2022-08-03T11:59:11;98923.52;;;19.43;73.59
62864;BME280;48954;59.950;11.014;2022-08-03T12:01:41;98923.42;;;19.47;73.64
62864;BME280;48954;59.950;11.014;2022-08-03T12:04:08;98913.48;;;19.53;73.66
62864;BME280;48954;59.950;11.014;2022-08-03T12:06:34;98912.92;;;19.61;73.64
62864;BME280;48954;59.950;11.014;2022-08-03T12:09:14;98899.39;;;19.67;73.42
62864;BME280;48954;59.950;11.014;2022-08-03T12:11:42;98899.19;;;19.69;73.29
62864;BME280;48954;59.950;11.014;2022-08-03T12:14:15;98894.27;;;19.71;73.21
62864;BME280;48954;59.950;11.014;2022-08-03T12:16:46;98890.89;;;19.83;73.10
62864;BME280;48954;59.950;11.014;2022-08-03T12:19:14;98889.21;;;19.88;73.03
62864;BME280;48954;59.950;11.014;2022-08-03T12:21:50;98879.15;;;20.05;72.95
62864;BME280;48954;59.950;11.014;2022-08-03T12:24:17;98880.33;;;20.16;72.79
62864;BME280;48954;59.950;11.014;2022-08-03T12:26:51;98875.67;;;20.25;72.40
62864;BME280;48954;59.950;11.014;2022-08-03T12:29:21;98873.55;;;20.34;72.38
62864;BME280;48954;59.950;11.014;2022-08-03T12:31:48;98869.70;;;20.41;72.55
62864;BME280;48954;59.950;11.014;2022-08-03T12:34:18;98871.39;;;20.56;72.51
62864;BME280;48954;59.950;11.014;2022-08-03T12:37:03;98872.52;;;20.80;72.21
62864;BME280;48954;59.950;11.014;2022-08-03T12:39:30;98874.43;;;21.06;71.55
62864;BME280;48954;59.950;11.014;2022-08-03T12:41:58;98879.05;;;21.28;70.44
62864;BME280;48954;59.950;11.014;2022-08-03T12:44:31;98877.90;;;21.31;70.02
62864;BME280;48954;59.950;11.014;2022-08-03T12:47:00;98883.67;;;21.19;69.93
62864;BME280;48954;59.950;11.014;2022-08-03T12:49:28;98884.17;;;21.01;69.94
62864;BME280;48954;59.950;11.014;2022-08-03T12:51:59;98882.36;;;20.89;69.80
62864;BME280;48954;59.950;11.014;2022-08-03T12:54:29;98883.24;;;20.72;69.91
62864;BME280;48954;59.950;11.014;2022-08-03T12:59:29;98883.42;;;20.56;70.20
62864;BME280;48954;59.950;11.014;2022-08-03T13:01:58;98871.95;;;20.51;70.38
62864;BME280;48954;59.950;11.014;2022-08-03T13:04:32;98881.31;;;20.50;70.60
62864;BME280;48954;59.950;11.014;2022-08-03T13:07:26;98871.58;;;20.62;70.97
62864;BME280;48954;59.950;11.014;2022-08-03T13:09:54;98873.34;;;20.72;70.74
62864;BME280;48954;59.950;11.014;2022-08-03T13:12:23;98869.61;;;20.66;70.31
62864;BME280;48954;59.950;11.014;2022-08-03T13:14:53;98869.98;;;20.60;70.30
62864;BME280;48954;59.950;11.014;2022-08-03T13:17:26;98877.39;;;20.55;70.48
62864;BME280;48954;59.950;11.014;2022-08-03T13:19:54;98874.99;;;20.48;70.46
62864;BME280;48954;59.950;11.014;2022-08-03T13:22:25;98878.73;;;20.49;70.40
62864;BME280;48954;59.950;11.014;2022-08-03T13:24:54;98880.77;;;20.54;70.38
62864;BME280;48954;59.950;11.014;2022-08-03T13:27:21;98876.42;;;20.65;70.39
62864;BME280;48954;59.950;11.014;2022-08-03T13:29:47;98867.16;;;20.75;70.13
62864;BME280;48954;59.950;11.014;2022-08-03T13:32:14;98866.18;;;20.83;69.62
62864;BME280;48954;59.950;11.014;2022-08-03T13:34:41;98866.58;;;20.83;69.08